Time;durP1;ratioP1;P1;durP2;ratioP2;P2;SDS_P1;SDS_P2;PMS_P1;PMS_P2;Temp;Humidity;BMP_temperature;BMP_pressure;BME280_temperature;BME280_humidity;BME280_pressure;Samples;Min_cycle;Max_cycle;Signal;HPM_P1;HPM_P2
2023/10/29 00:00:45;;;;;;;11.48;3.95;;;10.40;99.90;;;;;;4991150;28;20046;-57
2023/10/29 00:03:13;;;;;;;9.38;3.45;;;10.40;99.90;;;;;;4990858;28;20062;-57
2023/10/29 00:05:41;;;;;;;10.20;3.45;;;10.40;99.90;;;;;;4976493;28;20775;-57
2023/10/29 00:08:11;;;;;;;10.32;2.83;;;10.40;99.90;;;;;;4976916;28;20638;-57
2023/10/29 00:10:39;;;;;;;8.15;3.33;;;10.30;99.90;;;;;;4987799;28;20046;-57
2023/10/29 00:13:07;;;;;;;8.82;3.75;;;10.20;99.90;;;;;;4972827;28;20074;-57
2023/10/29 00:15:35;;;;;;;6.90;3.13;;;10.20;99.90;;;;;;4990615;28;20062;-57
2023/10/29 00:18:05;;;;;;;8.43;3.05;;;10.20;99.90;;;;;;4972760;28;20046;-57
2023/10/29 00:20:33;;;;;;;9.95;3.95;;;10.20;99.90;;;;;;4989967;28;20046;-57
2023/10/29 00:23:01;;;;;;;13.38;3.95;;;10.20;99.90;;;;;;4990648;28;20034;-57
2023/10/29 00:25:28;;;;;;;11.23;3.40;;;10.20;99.90;;;;;;4989380;28;20058;-57
2023/10/29 00:27:56;;;;;;;8.15;3.72;;;10.20;99.90;;;;;;4974681;28;20404;-57
2023/10/29 00:30:24;;;;;;;11.65;3.78;;;10.20;99.90;;;;;;4990681;28;20054;-57
2023/10/29 00:32:52;;;;;;;7.22;3.25;;;10.20;99.90;;;;;;4990426;28;20061;-57
2023/10/29 00:35:20;;;;;;;8.13;3.95;;;10.20;99.90;;;;;;4985972;28;20395;-57
2023/10/29 00:37:48;;;;;;;12.57;3.85;;;10.20;99.90;;;;;;4972159;28;20046;-57
2023/10/29 00:40:15;;;;;;;8.52;4.35;;;10.30;99.90;;;;;;4990669;28;20046;-58
2023/10/29 00:42:43;;;;;;;10.20;4.50;;;10.30;99.90;;;;;;4971619;28;20057;-57
2023/10/29 00:45:12;;;;;;;11.13;4.60;;;10.30;99.90;;;;;;4984896;28;20042;-57
2023/10/29 00:47:40;;;;;;;11.75;5.00;;;10.30;99.90;;;;;;4990336;28;20046;-57
2023/10/29 00:50:08;;;;;;;13.23;5.45;;;10.30;99.90;;;;;;4990304;28;20038;-56
2023/10/29 00:52:36;;;;;;;9.85;5.20;;;10.30;99.90;;;;;;4988617;28;20042;-57
2023/10/29 00:55:04;;;;;;;13.55;5.80;;;10.30;99.90;;;;;;4989292;28;20050;-57
2023/10/29 00:57:32;;;;;;;9.77;5.78;;;10.30;99.90;;;;;;4974078;28;20414;-57
2023/10/29 01:00:00;;;;;;;15.30;6.22;;;10.30;99.90;;;;;;4990120;28;20047;-57
2023/10/29 01:02:28;;;;;;;14.88;5.60;;;10.30;99.90;;;;;;4987831;28;20057;-57
2023/10/29 01:04:56;;;;;;;12.98;5.72;;;10.30;99.90;;;;;;4985263;28;20050;-58
2023/10/29 01:07:25;;;;;;;11.38;5.85;;;10.30;99.90;;;;;;4967478;28;20051;-57
2023/10/29 01:09:53;;;;;;;11.48;5.65;;;10.20;99.90;;;;;;4989443;28;20057;-57
2023/10/29 01:12:20;;;;;;;16.90;5.82;;;10.30;99.90;;;;;;4987483;28;20413;-56
2023/10/29 01:14:48;;;;;;;13.90;6.65;;;10.20;99.90;;;;;;4976506;28;20054;-57
2023/10/29 01:17:16;;;;;;;11.50;6.05;;;10.30;99.90;;;;;;4969542;28;20054;-57
2023/10/29 01:19:44;;;;;;;12.55;5.50;;;10.20;99.90;;;;;;4989590;28;20068;-57
2023/10/29 01:22:12;;;;;;;19.98;7.38;;;10.20;99.90;;;;;;4988555;28;20263;-56
2023/10/29 01:24:39;;;;;;;15.20;5.22;;;10.30;99.90;;;;;;4989750;28;20053;-57
2023/10/29 01:27:07;;;;;;;14.82;6.35;;;10.20;99.90;;;;;;4979606;28;20050;-57
2023/10/29 01:29:36;;;;;;;12.43;6.40;;;10.20;99.90;;;;;;4985432;28;20038;-57
2023/10/29 01:32:04;;;;;;;12.07;5.95;;;10.20;99.90;;;;;;4988504;28;20054;-57
2023/10/29 01:34:31;;;;;;;16.33;5.75;;;10.20;99.90;;;;;;4988111;28;20495;-57
2023/10/29 01:36:59;;;;;;;15.43;6.43;;;10.10;99.90;;;;;;4970420;28;20039;-58
2023/10/29 01:39:27;;;;;;;14.95;5.97;;;10.10;99.90;;;;;;4984321;28;20046;-57
2023/10/29 01:41:57;;;;;;;13.23;6.03;;;10.10;99.90;;;;;;4987822;28;20050;-57
2023/10/29 01:44:25;;;;;;;12.10;6.30;;;10.00;99.90;;;;;;4987823;28;20489;-56
2023/10/29 01:46:53;;;;;;;15.43;6.07;;;10.00;99.90;;;;;;4976805;28;20051;-58
2023/10/29 01:49:21;;;;;;;11.70;5.97;;;10.00;99.90;;;;;;4984347;28;20494;-56
2023/10/29 01:51:49;;;;;;;13.32;5.65;;;10.00;99.90;;;;;;4989470;28;20049;-56
2023/10/29 01:54:17;;;;;;;14.23;5.70;;;9.90;99.90;;;;;;4989207;28;20414;-56
2023/10/29 01:56:45;;;;;;;16.15;6.82;;;9.90;99.90;;;;;;4984277;28;20542;-57
2023/10/29 01:59:14;;;;;;;11.55;5.95;;;9.90;99.90;;;;;;4981856;28;20050;-57
2023/10/29 02:01:42;;;;;;;12.50;6.47;;;9.80;99.90;;;;;;4987880;28;20050;-57
2023/10/29 02:04:10;;;;;;;14.93;6.20;;;9.80;99.90;;;;;;4988756;28;20380;-57
2023/10/29 02:06:39;;;;;;;16.38;6.25;;;9.80;99.90;;;;;;4988775;28;20054;-57
2023/10/29 02:09:09;;;;;;;13.07;6.45;;;9.80;99.90;;;;;;4988796;28;20049;-57
2023/10/29 02:11:39;;;;;;;15.70;5.70;;;9.80;99.90;;;;;;4986888;28;20058;-56
2023/10/29 02:14:07;;;;;;;17.70;6.88;;;9.70;99.90;;;;;;4989179;28;20049;-57
2023/10/29 02:16:36;;;;;;;13.05;7.03;;;9.70;99.90;;;;;;4987976;28;20047;-56
2023/10/29 02:19:04;;;;;;;15.27;7.25;;;9.70;99.90;;;;;;4989213;28;20050;-56
2023/10/29 02:21:34;;;;;;;16.42;6.80;;;9.70;99.90;;;;;;4971938;28;20407;-56
2023/10/29 02:24:02;;;;;;;;;;;9.60;99.90;;;;;;4989325;28;20057;-57
2023/10/29 02:26:29;;;;;;;15.75;7.32;;;9.60;99.90;;;;;;4987022;28;19929;-57
2023/10/29 02:28:57;;;;;;;15.30;7.20;;;9.60;99.90;;;;;;4979244;28;20054;-57
2023/10/29 02:31:24;;;;;;;14.32;7.47;;;9.60;99.90;;;;;;4980026;28;20158;-57
2023/10/29 02:33:53;;;;;;;14.95;7.25;;;9.60;99.90;;;;;;4972237;28;20042;-57
2023/10/29 02:36:21;;;;;;;17.73;6.57;;;9.60;99.90;;;;;;4984020;28;20050;-57
2023/10/29 02:38:49;;;;;;;18.25;7.93;;;9.50;99.90;;;;;;4991463;28;20054;-57
2023/10/29 02:41:16;;;;;;;11.65;6.95;;;9.50;99.90;;;;;;4991853;28;20062;-57
2023/10/29 02:43:44;;;;;;;15.68;6.30;;;9.50;99.90;;;;;;4973496;28;20392;-57
2023/10/29 02:46:12;;;;;;;15.43;7.13;;;9.50;99.90;;;;;;4977893;28;20058;-57
2023/10/29 02:48:40;;;;;;;16.33;6.18;;;9.50;99.90;;;;;;4991954;28;20049;-58
2023/10/29 02:51:12;;;;;;;15.48;6.38;;;9.50;99.90;;;;;;4991860;28;20050;-57
2023/10/29 02:53:39;;;;;;;9.30;6.00;;;9.50;99.90;;;;;;4990666;28;20108;-57
2023/10/29 02:56:07;;;;;;;10.38;4.88;;;9.50;99.90;;;;;;4992179;28;20065;-57
2023/10/29 02:58:35;;;;;;;12.15;5.22;;;9.40;99.90;;;;;;4994256;28;20053;-57
2023/10/29 03:01:07;;;;;;;13.35;4.88;;;9.40;99.90;;;;;;4994430;28;20517;-57
2023/10/29 03:03:39;;;;;;;7.10;3.78;;;9.40;99.90;;;;;;4994510;28;20038;-57
2023/10/29 03:06:08;;;;;;;12.18;4.35;;;9.40;99.90;;;;;;4985618;28;20057;-57
2023/10/29 03:08:36;;;;;;;9.27;3.70;;;9.40;99.90;;;;;;4974650;28;20043;-57
2023/10/29 03:11:04;;;;;;;10.77;4.18;;;9.40;99.90;;;;;;4976056;28;20521;-57
2023/10/29 03:13:31;;;;;;;8.15;3.20;;;9.40;99.90;;;;;;4975783;28;20059;-57
2023/10/29 03:15:59;;;;;;;7.95;3.47;;;9.40;99.90;;;;;;4975958;28;20047;-57
2023/10/29 03:18:29;;;;;;;8.25;3.00;;;9.40;99.90;;;;;;4974480;28;20047;-58
2023/10/29 03:20:57;;;;;;;9.38;3.20;;;9.40;99.90;;;;;;4987412;28;20061;-57
2023/10/29 03:23:24;;;;;;;6.95;2.40;;;9.40;99.90;;;;;;4994230;28;20050;-57
2023/10/29 03:25:59;;;;;;;10.20;2.88;;;9.40;99.90;;;;;;4995322;28;20070;-57
2023/10/29 03:28:26;;;;;;;5.35;2.13;;;9.40;99.90;;;;;;4992201;28;20050;-57
2023/10/29 03:30:54;;;;;;;5.13;2.25;;;9.40;99.90;;;;;;4995052;28;20046;-57
2023/10/29 03:33:22;;;;;;;7.07;1.95;;;9.40;99.90;;;;;;4994907;28;20054;-57
2023/10/29 03:35:50;;;;;;;7.40;2.40;;;9.40;99.90;;;;;;4985421;28;20070;-56
2023/10/29 03:38:18;;;;;;;6.60;1.60;;;9.40;99.90;;;;;;4992697;28;20065;-57
2023/10/29 03:40:46;;;;;;;5.22;1.85;;;9.40;99.90;;;;;;4994884;28;20049;-57
2023/10/29 03:43:13;;;;;;;8.00;1.88;;;9.30;99.90;;;;;;4995014;28;20050;-56
2023/10/29 03:45:41;;;;;;;6.78;1.85;;;9.40;99.90;;;;;;4994800;28;20394;-57
2023/10/29 03:48:09;;;;;;;6.93;1.60;;;9.40;99.90;;;;;;4994814;28;20055;-56
2023/10/29 03:50:36;;;;;;;8.10;1.63;;;9.40;99.90;;;;;;4994901;28;20410;-57
2023/10/29 03:53:04;;;;;;;4.65;1.65;;;9.30;99.90;;;;;;4992375;28;20642;-57
2023/10/29 03:55:32;;;;;;;5.13;1.60;;;9.30;99.90;;;;;;4992903;28;20540;-57
2023/10/29 03:58:00;;;;;;;7.55;1.60;;;9.30;99.90;;;;;;4994746;28;20490;-57
2023/10/29 04:00:28;;;;;;;16.55;1.55;;;9.30;99.90;;;;;;4994554;28;20051;-57
2023/10/29 04:03:00;;;;;;;3.75;1.27;;;9.20;99.90;;;;;;4993236;28;20046;-57
2023/10/29 04:05:28;;;;;;;6.32;1.45;;;9.20;99.90;;;;;;4987808;28;20054;-57
2023/10/29 04:07:55;;;;;;;6.10;2.25;;;9.10;99.90;;;;;;4974555;28;20683;-56
2023/10/29 04:10:23;;;;;;;6.25;2.03;;;9.10;99.90;;;;;;4983073;28;20081;-57
2023/10/29 04:12:51;;;;;;;8.25;2.00;;;9.10;99.90;;;;;;4994264;28;20050;-57
2023/10/29 04:15:19;;;;;;;10.77;1.90;;;9.10;99.90;;;;;;4992741;28;20479;-57
2023/10/29 04:17:48;;;;;;;7.30;2.60;;;9.10;99.90;;;;;;4994487;28;20058;-56
2023/10/29 04:20:16;;;;;;;8.43;2.33;;;9.00;99.90;;;;;;4994205;28;20069;-57
2023/10/29 04:22:44;;;;;;;5.20;1.52;;;9.00;99.90;;;;;;4994008;28;20050;-57
2023/10/29 04:25:12;;;;;;;7.57;1.80;;;8.90;99.90;;;;;;4993795;28;20480;-56
2023/10/29 04:27:39;;;;;;;8.90;1.35;;;8.90;99.90;;;;;;4994268;28;20054;-57
2023/10/29 04:30:07;;;;;;;5.10;1.52;;;8.90;99.90;;;;;;4994098;28;20054;-57
2023/10/29 04:32:35;;;;;;;7.15;2.28;;;8.80;99.90;;;;;;4993754;28;20046;-57
2023/10/29 04:35:03;;;;;;;7.88;1.70;;;8.80;99.90;;;;;;4993907;28;20062;-56
2023/10/29 04:37:31;;;;;;;7.72;1.05;;;8.80;99.90;;;;;;4994079;28;20053;-57
2023/10/29 04:39:58;;;;;;;9.20;1.58;;;8.70;99.90;;;;;;4993835;28;20054;-56
2023/10/29 04:42:26;;;;;;;6.30;1.42;;;8.70;99.90;;;;;;4993995;28;20053;-56
2023/10/29 04:44:53;;;;;;;6.90;1.63;;;8.70;99.90;;;;;;4993731;28;20057;-57
2023/10/29 04:47:21;;;;;;;7.78;1.52;;;8.70;99.90;;;;;;4993747;28;20046;-56
2023/10/29 04:49:49;;;;;;;4.10;1.40;;;8.70;99.90;;;;;;4993939;28;20042;-56
2023/10/29 04:52:16;;;;;;;11.35;1.52;;;8.70;99.90;;;;;;4992281;28;20050;-57
2023/10/29 04:54:44;;;;;;;5.97;1.38;;;8.60;99.90;;;;;;4993232;28;20426;-56
2023/10/29 04:57:12;;;;;;;5.75;1.38;;;8.60;99.90;;;;;;4993518;28;20046;-56
2023/10/29 04:59:39;;;;;;;6.10;1.25;;;8.60;99.90;;;;;;4993713;28;20050;-57
2023/10/29 05:02:07;;;;;;;4.10;1.73;;;8.60;99.90;;;;;;4993382;28;20509;-57
2023/10/29 05:04:35;;;;;;;4.45;1.67;;;8.50;99.90;;;;;;4993643;28;20046;-57
2023/10/29 05:07:02;;;;;;;3.70;1.33;;;8.50;99.90;;;;;;4975122;28;20043;-57
2023/10/29 05:09:30;;;;;;;4.18;1.50;;;8.50;99.90;;;;;;4985536;28;20406;-57
2023/10/29 05:11:57;;;;;;;5.47;1.92;;;8.40;99.90;;;;;;4985447;28;20043;-57
2023/10/29 05:14:25;;;;;;;6.40;1.70;;;8.40;99.90;;;;;;4973900;28;20051;-58
2023/10/29 05:16:53;;;;;;;12.75;2.03;;;8.40;99.90;;;;;;4973745;28;20082;-57
2023/10/29 05:19:21;;;;;;;7.80;1.73;;;8.40;99.90;;;;;;4971566;28;20051;-57
2023/10/29 05:21:49;;;;;;;10.32;1.60;;;8.40;99.90;;;;;;4973740;28;20399;-57
2023/10/29 05:24:17;;;;;;;10.30;1.83;;;8.30;99.90;;;;;;4972453;28;20059;-57
2023/10/29 05:26:45;;;;;;;6.55;1.83;;;8.30;99.90;;;;;;4993059;28;20046;-57
2023/10/29 05:29:12;;;;;;;7.88;2.08;;;8.30;99.90;;;;;;4991880;28;20486;-57
2023/10/29 05:31:40;;;;;;;7.10;1.73;;;8.20;99.90;;;;;;4992860;28;20051;-57
2023/10/29 05:34:08;;;;;;;7.55;2.05;;;8.20;99.90;;;;;;4992962;28;20054;-57
2023/10/29 05:36:35;;;;;;;12.40;2.30;;;8.20;99.90;;;;;;4978136;28;20053;-57
2023/10/29 05:39:05;;;;;;;7.95;1.98;;;8.20;99.90;;;;;;4973517;28;20047;-57
2023/10/29 05:41:32;;;;;;;10.07;2.50;;;8.20;99.90;;;;;;4988378;28;20494;-57
2023/10/29 05:44:00;;;;;;;9.43;2.35;;;8.10;99.90;;;;;;4992982;28;20061;-57
2023/10/29 05:46:29;;;;;;;10.00;2.88;;;8.10;99.90;;;;;;4980637;28;20515;-57
2023/10/29 05:48:56;;;;;;;8.40;2.30;;;8.10;99.90;;;;;;4981413;28;20054;-58
2023/10/29 05:51:24;;;;;;;8.60;2.50;;;8.10;99.90;;;;;;4989463;28;20042;-57
2023/10/29 05:53:52;;;;;;;6.18;2.63;;;8.10;99.90;;;;;;4988906;28;20210;-57
2023/10/29 05:56:19;;;;;;;6.38;2.35;;;8.10;99.90;;;;;;4989118;28;20441;-57
2023/10/29 05:58:48;;;;;;;10.43;2.03;;;8.10;99.90;;;;;;4989085;28;20042;-56
2023/10/29 06:01:16;;;;;;;5.47;2.03;;;8.10;99.90;;;;;;4989200;28;20205;-56
2023/10/29 06:03:43;;;;;;;11.00;2.10;;;8.10;99.90;;;;;;4968111;28;20495;-56
2023/10/29 06:06:11;;;;;;;10.52;2.35;;;8.20;99.90;;;;;;4968268;28;20039;-56
2023/10/29 06:08:39;;;;;;;3.50;2.13;;;8.20;99.90;;;;;;4980439;28;20061;-56
2023/10/29 06:11:07;;;;;;;10.65;2.92;;;8.20;99.90;;;;;;4989060;28;20050;-56
2023/10/29 06:13:34;;;;;;;9.70;2.70;;;8.20;99.90;;;;;;4988673;28;20042;-56
2023/10/29 06:16:07;;;;;;;10.32;2.67;;;8.20;99.90;;;;;;4988665;28;20050;-57
2023/10/29 06:18:35;;;;;;;11.00;2.95;;;8.20;99.90;;;;;;4987869;28;20046;-56
2023/10/29 06:21:03;;;;;;;5.57;2.33;;;8.20;99.90;;;;;;4983307;28;20046;-59
2023/10/29 06:23:31;;;;;;;12.48;3.13;;;8.30;99.90;;;;;;4986294;28;20520;-57
2023/10/29 06:25:59;;;;;;;8.10;2.95;;;8.30;99.90;;;;;;4988503;28;20062;-56
2023/10/29 06:28:30;;;;;;;9.70;2.88;;;8.30;99.90;;;;;;4988701;28;20418;-56
2023/10/29 06:30:57;;;;;;;15.73;2.85;;;8.30;99.90;;;;;;4986952;28;20046;-57
2023/10/29 06:33:25;;;;;;;10.95;2.95;;;8.30;99.90;;;;;;4977666;28;20046;-57
2023/10/29 06:35:57;;;;;;;12.35;3.15;;;8.30;99.90;;;;;;4978029;28;20054;-57
2023/10/29 06:38:25;;;;;;;11.50;3.75;;;8.20;99.90;;;;;;4983314;28;20046;-56
2023/10/29 06:40:52;;;;;;;13.85;3.10;;;8.30;99.90;;;;;;4984650;28;20055;-56
2023/10/29 06:43:20;;;;;;;11.50;3.38;;;8.30;99.90;;;;;;4988690;28;20054;-57
2023/10/29 06:45:48;;;;;;;10.45;3.10;;;8.20;99.90;;;;;;4988517;28;20050;-57
2023/10/29 06:48:17;;;;;;;9.32;3.47;;;8.30;99.90;;;;;;4983451;28;20054;-57
2023/10/29 06:50:47;;;;;;;13.30;4.32;;;8.30;99.90;;;;;;4969575;28;20065;-56
2023/10/29 06:53:15;;;;;;;11.73;4.28;;;8.30;99.90;;;;;;4980683;28;20053;-57
2023/10/29 06:55:43;;;;;;;14.43;3.78;;;8.30;99.90;;;;;;4988519;28;20058;-58
2023/10/29 06:58:11;;;;;;;15.18;3.83;;;8.30;99.90;;;;;;4988432;28;20038;-57
2023/10/29 07:00:39;;;;;;;16.80;3.53;;;8.30;99.90;;;;;;4988613;28;20054;-58
2023/10/29 07:03:07;;;;;;;10.32;3.60;;;8.40;99.90;;;;;;4987086;28;20046;-56
2023/10/29 07:05:35;;;;;;;11.70;3.78;;;8.40;99.90;;;;;;4988524;28;20046;-58
2023/10/29 07:08:03;;;;;;;11.77;3.92;;;8.50;99.90;;;;;;4987999;28;20043;-57
2023/10/29 07:10:31;;;;;;;11.98;3.25;;;8.50;99.90;;;;;;4987509;28;20049;-57
2023/10/29 07:12:59;;;;;;;16.15;4.18;;;8.60;99.90;;;;;;4985841;28;20525;-58
2023/10/29 07:15:27;;;;;;;15.73;3.63;;;8.60;99.90;;;;;;4988388;28;20054;-58
2023/10/29 07:17:55;;;;;;;12.95;3.45;;;8.70;99.90;;;;;;4987406;28;20541;-57
2023/10/29 07:20:22;;;;;;;15.88;3.53;;;8.70;99.90;;;;;;4968624;28;20139;-56
2023/10/29 07:22:50;;;;;;;15.88;3.60;;;8.70;99.90;;;;;;4979460;28;20054;-56
2023/10/29 07:25:17;;;;;;;7.88;3.03;;;8.70;99.90;;;;;;4980845;28;20053;-57
2023/10/29 07:27:45;;;;;;;8.18;3.10;;;8.70;99.90;;;;;;4973102;28;20055;-57
2023/10/29 07:30:13;;;;;;;11.55;3.25;;;8.60;99.90;;;;;;4988356;28;20328;-56
2023/10/29 07:32:40;;;;;;;12.20;3.20;;;8.60;99.90;;;;;;4987877;28;20057;-56
2023/10/29 07:35:08;;;;;;;9.20;2.80;;;8.60;99.90;;;;;;4973732;28;20061;-57
2023/10/29 07:37:36;;;;;;;9.98;3.60;;;8.60;99.90;;;;;;4968384;28;20059;-57
2023/10/29 07:40:04;;;;;;;13.05;2.78;;;8.60;99.90;;;;;;4968986;28;20069;-56
2023/10/29 07:42:32;;;;;;;12.88;2.97;;;8.60;99.90;;;;;;4976107;28;20054;-58
2023/10/29 07:45:00;;;;;;;15.27;3.47;;;8.60;99.90;;;;;;4990642;28;20051;-57
2023/10/29 07:47:28;;;;;;;9.23;3.13;;;8.70;99.90;;;;;;4991399;28;20051;-57
2023/10/29 07:49:56;;;;;;;9.38;3.47;;;8.70;99.90;;;;;;4985990;28;20054;-57
2023/10/29 07:52:23;;;;;;;18.02;4.25;;;8.70;99.90;;;;;;4991236;28;20050;-57
2023/10/29 07:54:51;;;;;;;16.88;3.47;;;8.70;99.90;;;;;;4991523;28;20057;-57
2023/10/29 07:57:19;;;;;;;15.27;3.58;;;8.70;99.90;;;;;;4991339;28;20042;-58
2023/10/29 07:59:47;;;;;;;19.10;3.72;;;8.70;99.90;;;;;;4981797;28;20042;-57
2023/10/29 08:02:15;;;;;;;13.82;3.65;;;8.70;99.90;;;;;;4987437;28;20486;-57
2023/10/29 08:04:42;;;;;;;12.02;4.00;;;8.70;99.90;;;;;;4976822;28;20043;-57
2023/10/29 08:07:10;;;;;;;13.00;3.80;;;8.70;99.90;;;;;;4987380;28;20054;-56
2023/10/29 08:09:37;;;;;;;16.58;4.15;;;8.70;99.90;;;;;;4988149;28;20073;-57
2023/10/29 08:12:05;;;;;;;12.45;3.42;;;8.70;99.90;;;;;;4987492;28;20533;-57
2023/10/29 08:14:33;;;;;;;13.85;3.10;;;8.70;99.90;;;;;;4987675;28;20057;-57
2023/10/29 08:17:01;;;;;;;16.88;4.50;;;8.80;99.90;;;;;;4987939;28;20054;-57
2023/10/29 08:19:28;;;;;;;13.23;2.60;;;8.80;99.90;;;;;;4978962;28;20047;-57
2023/10/29 08:21:56;;;;;;;14.82;2.85;;;8.90;99.90;;;;;;4969323;28;20395;-57
2023/10/29 08:24:25;;;;;;;10.95;2.63;;;8.90;99.90;;;;;;4987980;28;20499;-58
2023/10/29 08:26:52;;;;;;;12.68;2.80;;;8.90;99.90;;;;;;4987992;28;20042;-58
2023/10/29 08:29:20;;;;;;;9.95;3.25;;;9.00;99.90;;;;;;4987619;28;20062;-57
2023/10/29 08:31:48;;;;;;;13.40;3.00;;;9.00;99.90;;;;;;4987571;28;20514;-57
2023/10/29 08:34:15;;;;;;;11.50;2.40;;;9.10;99.90;;;;;;4968789;28;20061;-57
2023/10/29 08:36:43;;;;;;;14.68;2.10;;;9.10;99.90;;;;;;4978916;28;20066;-56
2023/10/29 08:39:10;;;;;;;14.45;2.42;;;9.10;99.90;;;;;;4979467;28;20054;-57
2023/10/29 08:41:38;;;;;;;10.50;1.77;;;9.20;99.90;;;;;;4968340;28;20055;-57
2023/10/29 08:44:06;;;;;;;8.32;1.50;;;9.20;99.90;;;;;;4985926;28;20061;-58
2023/10/29 08:46:33;;;;;;;11.52;2.15;;;9.30;99.90;;;;;;4987318;28;20486;-56
2023/10/29 08:49:02;;;;;;;8.45;1.58;;;9.30;99.90;;;;;;4983592;28;20487;-56
2023/10/29 08:51:30;;;;;;;9.52;1.60;;;9.40;99.90;;;;;;4967820;28;20062;-57
2023/10/29 08:53:59;;;;;;;6.80;1.45;;;9.40;99.90;;;;;;4983253;28;20054;-57
2023/10/29 08:56:26;;;;;;;8.82;1.83;;;9.50;99.90;;;;;;4986843;28;20050;-57
2023/10/29 08:58:54;;;;;;;13.23;1.63;;;9.50;99.90;;;;;;4986646;28;20054;-57
2023/10/29 09:01:22;;;;;;;12.00;1.60;;;9.60;99.90;;;;;;4985616;28;20046;-58
2023/10/29 09:03:49;;;;;;;9.10;1.27;;;9.70;99.90;;;;;;4985503;28;20619;-57
2023/10/29 09:06:17;;;;;;;12.30;1.73;;;9.70;99.90;;;;;;4979298;28;20142;-57
2023/10/29 09:08:45;;;;;;;6.28;1.50;;;9.70;99.90;;;;;;4973217;28;20054;-57
2023/10/29 09:11:14;;;;;;;7.18;1.00;;;9.80;99.90;;;;;;4979253;28;20506;-58
2023/10/29 09:13:42;;;;;;;7.95;1.20;;;9.80;99.90;;;;;;4986347;28;20479;-58
2023/10/29 09:16:10;;;;;;;8.93;1.60;;;9.90;99.90;;;;;;4986415;28;20077;-58
2023/10/29 09:18:37;;;;;;;5.50;1.15;;;10.00;99.90;;;;;;4986379;28;20050;-58
2023/10/29 09:21:09;;;;;;;9.23;1.00;;;10.10;99.90;;;;;;4985415;28;20050;-58
2023/10/29 09:23:40;;;;;;;7.82;1.02;;;10.20;99.90;;;;;;4986429;28;20043;-58
2023/10/29 09:26:08;;;;;;;6.13;1.08;;;10.40;99.90;;;;;;4986490;28;20050;-57
2023/10/29 09:28:35;;;;;;;7.43;1.58;;;10.30;99.90;;;;;;4986532;28;20050;-58
2023/10/29 09:31:04;;;;;;;6.60;0.98;;;10.40;99.90;;;;;;4982714;28;20054;-59
2023/10/29 09:33:31;;;;;;;8.65;0.95;;;10.40;99.90;;;;;;4969245;28;20062;-58
2023/10/29 09:36:00;;;;;;;7.35;1.67;;;10.60;99.90;;;;;;4982812;28;20046;-58
2023/10/29 09:38:27;;;;;;;6.35;1.10;;;10.60;99.90;;;;;;4984493;28;20049;-58
2023/10/29 09:40:55;;;;;;;12.27;1.30;;;10.60;99.90;;;;;;4970144;28;20054;-58
2023/10/29 09:43:27;;;;;;;8.23;0.95;;;10.70;99.90;;;;;;4985020;28;20053;-57
2023/10/29 09:45:56;;;;;;;8.27;1.25;;;10.80;99.90;;;;;;4984626;28;20053;-58
2023/10/29 09:48:25;;;;;;;6.77;1.40;;;10.80;99.90;;;;;;4984337;28;20606;-58
2023/10/29 09:50:53;;;;;;;10.87;1.33;;;10.90;99.90;;;;;;4979436;28;20478;-58
2023/10/29 09:53:24;;;;;;;8.68;1.10;;;10.90;99.90;;;;;;4976893;28;20050;-57
2023/10/29 09:55:53;;;;;;;9.68;1.50;;;11.00;99.90;;;;;;4984303;28;20046;-59
2023/10/29 09:58:23;;;;;;;7.38;1.50;;;11.10;99.90;;;;;;4985162;28;20046;-57
2023/10/29 10:00:51;;;;;;;8.73;1.95;;;11.20;99.90;;;;;;4985751;28;20390;-58
2023/10/29 10:03:19;;;;;;;7.35;1.65;;;11.30;99.90;;;;;;4985698;28;20062;-57
2023/10/29 10:05:47;;;;;;;8.95;1.25;;;11.30;99.90;;;;;;4980717;28;20042;-57
2023/10/29 10:08:26;;;;;;;8.75;1.17;;;11.40;99.90;;;;;;4985852;28;20050;-57
2023/10/29 10:10:55;;;;;;;6.43;1.42;;;11.50;99.90;;;;;;4983724;28;20058;-56
2023/10/29 10:13:41;;;;;;;11.05;1.17;;;11.50;99.90;;;;;;4981432;28;20050;-57
2023/10/29 10:16:14;;;;;;;5.70;0.98;;;11.60;99.90;;;;;;4966824;28;20051;-57
2023/10/29 10:18:57;;;;;;;7.72;1.63;;;11.70;99.90;;;;;;4977752;28;20054;-57
2023/10/29 10:21:41;;;;;;;6.38;1.02;;;11.80;99.90;;;;;;4968801;28;20065;-57
2023/10/29 10:24:10;;;;;;;7.25;1.00;;;11.80;99.90;;;;;;4984057;28;20069;-57
2023/10/29 10:26:40;;;;;;;5.63;1.27;;;11.90;99.90;;;;;;4986152;28;20515;-57
2023/10/29 10:29:12;;;;;;;4.13;0.93;;;12.00;99.90;;;;;;4985217;28;20050;-57
2023/10/29 10:31:40;;;;;;;13.60;1.40;;;12.00;99.90;;;;;;4985465;28;20041;-58
2023/10/29 10:34:16;;;;;;;7.10;1.30;;;12.10;99.90;;;;;;4983911;28;20050;-58
2023/10/29 10:36:45;;;;;;;4.70;1.00;;;12.10;99.90;;;;;;4983141;28;20494;-58
2023/10/29 10:39:13;;;;;;;8.02;1.08;;;12.20;99.90;;;;;;4985660;28;20054;-57
2023/10/29 10:41:43;;;;;;;7.85;1.58;;;12.30;99.90;;;;;;4985628;28;20076;-58
2023/10/29 10:44:13;;;;;;;9.02;1.23;;;12.40;99.90;;;;;;4985378;28;20046;-58
2023/10/29 10:46:51;;;;;;;11.50;2.30;;;12.40;99.90;;;;;;4986004;28;20061;-58
2023/10/29 10:49:21;;;;;;;9.18;1.17;;;12.50;99.90;;;;;;4985595;28;20042;-57
2023/10/29 10:51:54;;;;;;;4.97;1.27;;;12.60;99.90;;;;;;4967304;28;20054;-58
2023/10/29 10:54:23;;;;;;;5.95;0.80;;;12.60;99.90;;;;;;4970974;28;20503;-57
2023/10/29 10:56:52;;;;;;;8.98;1.15;;;12.80;99.90;;;;;;4985088;28;20058;-57
2023/10/29 10:59:21;;;;;;;5.38;1.02;;;12.90;99.90;;;;;;4985291;28;20050;-57
2023/10/29 11:01:49;;;;;;;5.85;1.23;;;13.00;99.90;;;;;;4985100;28;20177;-57
2023/10/29 11:04:17;;;;;;;4.47;0.80;;;13.00;99.90;;;;;;4985112;28;20042;-57
2023/10/29 11:06:45;;;;;;;10.20;1.10;;;13.10;99.90;;;;;;4981479;28;20046;-57
2023/10/29 11:09:14;;;;;;;7.03;1.40;;;13.20;99.90;;;;;;4984741;28;20046;-58
2023/10/29 11:11:49;;;;;;;6.53;1.00;;;13.40;99.90;;;;;;4985148;28;20511;-59
2023/10/29 11:14:18;;;;;;;8.40;1.30;;;13.50;99.90;;;;;;4982270;28;20046;-57
2023/10/29 11:16:55;;;;;;;10.43;1.27;;;13.70;99.90;;;;;;4985444;28;20050;-58
2023/10/29 11:19:47;;;;;;;7.80;1.00;;;13.90;99.90;;;;;;4989231;28;20173;-58
2023/10/29 11:22:29;;;;;;;10.90;1.40;;;14.00;99.90;;;;;;4972240;28;20051;-58
2023/10/29 11:25:08;;;;;;;5.07;0.90;;;14.30;99.90;;;;;;4988827;28;20042;-57
2023/10/29 11:27:38;;;;;;;11.95;1.55;;;14.40;99.90;;;;;;4987736;28;21329;-59
2023/10/29 11:30:18;;;;;;;12.38;1.60;;;14.60;99.90;;;;;;4989084;28;20506;-58
2023/10/29 11:33:07;;;;;;;8.18;1.02;;;14.80;99.90;;;;;;4988820;28;20545;-58
2023/10/29 11:35:36;;;;;;;10.20;1.48;;;14.90;99.90;;;;;;4982984;28;20039;-59
2023/10/29 11:38:33;;;;;;;11.18;1.25;;;15.00;99.90;;;;;;4970493;28;20057;-57
2023/10/29 11:41:36;;;;;;;10.07;1.65;;;14.90;99.90;;;;;;4969403;28;20228;-59
2023/10/29 11:44:25;;;;;;;7.35;1.25;;;14.80;99.90;;;;;;4985885;28;20050;-58
2023/10/29 11:46:56;;;;;;;7.18;1.67;;;15.00;99.90;;;;;;4988474;28;20046;-59
2023/10/29 11:49:28;;;;;;;10.85;1.30;;;15.20;99.90;;;;;;4988209;28;20046;-59
2023/10/29 11:52:03;;;;;;;5.90;1.10;;;15.50;99.90;;;;;;4986538;28;20058;-60
2023/10/29 11:54:37;;;;;;;9.88;1.45;;;15.80;99.90;;;;;;4974149;28;20046;-58
2023/10/29 11:57:06;;;;;;;6.05;1.48;;;16.00;99.90;;;;;;4975634;28;20070;-59
2023/10/29 11:59:34;;;;;;;12.48;1.27;;;16.10;99.90;;;;;;4985298;28;20046;-59
2023/10/29 12:02:01;;;;;;;6.80;1.08;;;16.10;99.90;;;;;;4969180;28;20050;-57
2023/10/29 12:04:32;;;;;;;12.30;1.40;;;16.20;99.90;;;;;;4987935;28;20502;-59
2023/10/29 12:07:00;;;;;;;9.98;1.83;;;16.50;99.90;;;;;;4970554;28;20402;-58
2023/10/29 12:09:28;;;;;;;8.65;1.13;;;16.70;99.90;;;;;;5000498;28;20050;-60
2023/10/29 12:11:56;;;;;;;10.07;1.58;;;16.70;99.90;;;;;;4987669;28;20051;-60
2023/10/29 12:14:41;;;;;;;10.13;2.10;;;16.70;99.90;;;;;;4985945;28;20127;-60
2023/10/29 12:17:10;;;;;;;12.27;1.60;;;16.90;99.90;;;;;;4987567;28;20046;-58
2023/10/29 12:19:44;;;;;;;13.02;1.33;;;16.90;99.90;;;;;;4987754;28;20046;-59
2023/10/29 12:22:24;;;;;;;10.32;1.80;;;16.70;99.90;;;;;;4974256;28;20055;-59
2023/10/29 12:25:00;;;;;;;12.30;1.67;;;16.30;99.90;;;;;;4987676;28;20042;-59
2023/10/29 12:27:31;;;;;;;8.13;1.20;;;16.20;99.90;;;;;;4987958;28;20043;-61
2023/10/29 12:29:58;;;;;;;9.32;1.42;;;16.30;99.90;;;;;;4987255;28;20510;-60
2023/10/29 12:32:27;;;;;;;13.27;1.60;;;16.40;99.90;;;;;;4987563;28;20821;-60
2023/10/29 12:34:59;;;;;;;11.05;1.48;;;16.60;99.90;;;;;;4987296;28;20482;-59
2023/10/29 12:37:28;;;;;;;9.07;1.95;;;16.80;99.90;;;;;;4972233;28;20058;-60
2023/10/29 12:39:59;;;;;;;13.05;1.80;;;16.80;99.90;;;;;;4987732;28;20069;-61
2023/10/29 12:42:47;;;;;;;10.50;1.60;;;16.70;99.90;;;;;;4987401;28;20050;-60
2023/10/29 12:45:26;;;;;;;12.63;1.73;;;16.60;99.90;;;;;;4986418;28;20509;-60
2023/10/29 12:48:10;;;;;;;9.68;1.23;;;16.20;99.90;;;;;;4987073;28;20053;-60
2023/10/29 12:50:51;;;;;;;17.70;1.92;;;15.70;99.90;;;;;;4978512;28;20057;-59
2023/10/29 12:53:23;;;;;;;9.25;0.90;;;15.50;99.90;;;;;;4987024;28;20222;-58
2023/10/29 12:55:51;;;;;;;14.00;1.55;;;15.80;99.90;;;;;;4986629;28;20506;-58
2023/10/29 12:58:20;;;;;;;8.88;1.25;;;16.00;99.90;;;;;;4987086;28;20412;-59